»·PEaware :: N541JS KCCB-KTUS

N541JS :: KCCB-KTUS

FLIGHT INFORMATION

Flight Status: Arrived
Operator: Privately registered:
United States
More flights under this callsign
Pilot: Dean B. (20222)
Aircraft: MOONEY M-20 201 202 205 220 ATS MSE
(M20P)
More flights by this aircraft type
Origin: KCCB Cable
United States
Destination: KTUS Tucson Intl
United States
More flights between these airports :: More routes between these airports
Route: +
File this flight plan on PilotEdge
Remarks:
Altitude:
(Current/Filed)
0ft
Speed:
(Current/Filed)
0kts
Departed: 08-Nov-18 08:40 PM
Arrived: 08-Nov-18 10:55 PM
Distance/Time
Traveled:
359nm/2:15
Distance/Time
To Go:
Arrived

Flight Plot

Page will automatically refresh every two minutes.

Flight plan parsing failed; only flown route is shown


Map Options




Map Legend


Flown Route
Filed Route
Departure Airport
Arrival Airport
Navaid (VOR, NDB)
Fix

Horizontal Profiles

Position Reports

Time Latitude Longitude Heading Altitude Ground
Speed
08-Nov-18 20:42 34.146443 -117.657353 94 4063ft 118kts
08-Nov-18 20:43 34.143162 -117.615309 94 4798ft 132kts
08-Nov-18 20:44 34.140543 -117.571855 91 5640ft 125kts
08-Nov-18 20:45 34.137620 -117.526930 108 6048ft 147kts
08-Nov-18 20:46 34.110912 -117.494440 137 6839ft 127kts
08-Nov-18 20:47 34.085648 -117.466595 137 7698ft 121kts
08-Nov-18 20:48 34.064742 -117.443539 137 8363ft 121kts
08-Nov-18 20:49 34.044786 -117.411265 116 9122ft 121kts
08-Nov-18 20:50 34.031615 -117.374308 110 9848ft 120kts
08-Nov-18 20:51 34.020811 -117.337313 108 10529ft 120kts
08-Nov-18 20:52 34.010355 -117.299077 108 11202ft 120kts
08-Nov-18 20:53 34.000085 -117.260812 108 11851ft 120kts
08-Nov-18 20:54 33.989810 -117.222374 108 12480ft 120kts
08-Nov-18 20:55 33.979569 -117.184061 108 13082ft 120kts
08-Nov-18 20:56 33.969646 -117.146959 108 13644ft 122kts
08-Nov-18 20:57 33.959176 -117.107929 108 14273ft 123kts
08-Nov-18 20:58 33.948507 -117.068190 108 14921ft 126kts
08-Nov-18 20:59 33.938132 -117.029491 108 15675ft 119kts
08-Nov-18 21:00 33.932334 -117.007899 108 16059ft 119kts
08-Nov-18 21:01 33.922068 -116.969784 108 16716ft 119kts
08-Nov-18 21:02 33.911922 -116.932187 108 17332ft 119kts
08-Nov-18 21:03 33.904439 -116.904605 108 17423ft 135kts
08-Nov-18 21:04 33.893445 -116.864314 108 17321ft 154kts
08-Nov-18 21:05 33.880006 -116.814888 108 17317ft 157kts
08-Nov-18 21:06 33.866358 -116.764629 108 17317ft 158kts
08-Nov-18 21:07 33.852700 -116.714392 108 17317ft 158kts
08-Nov-18 21:08 33.841202 -116.672168 108 17317ft 159kts
08-Nov-18 21:09 33.827463 -116.621794 108 17317ft 159kts
08-Nov-18 21:10 33.813711 -116.571466 108 17316ft 158kts
08-Nov-18 21:11 33.799987 -116.521327 108 17316ft 157kts
08-Nov-18 21:12 33.786050 -116.470464 108 17320ft 166kts
08-Nov-18 21:13 33.771200 -116.416428 108 17317ft 174kts
08-Nov-18 21:14 33.759504 -116.373951 108 17317ft 176kts
08-Nov-18 21:15 33.744344 -116.318970 108 17317ft 177kts
08-Nov-18 21:16 33.729771 -116.266207 108 17317ft 177kts
08-Nov-18 21:17 33.714231 -116.210061 108 17317ft 177kts
08-Nov-18 21:18 33.701275 -116.163331 108 17317ft 177kts
08-Nov-18 21:19 33.683037 -116.097683 108 17317ft 177kts
08-Nov-18 21:20 33.670051 -116.051027 108 17317ft 177kts
08-Nov-18 21:21 33.651752 -115.985418 108 17317ft 177kts
08-Nov-18 21:22 33.638770 -115.938976 108 17317ft 177kts
08-Nov-18 21:23 33.620450 -115.873553 108 17317ft 177kts
08-Nov-18 21:24 33.607483 -115.827340 108 17317ft 177kts
08-Nov-18 21:25 33.591681 -115.771117 108 17317ft 177kts
08-Nov-18 21:26 33.573284 -115.705807 108 17317ft 177kts
08-Nov-18 21:27 33.560130 -115.659200 108 17317ft 177kts
08-Nov-18 21:28 33.544278 -115.603141 108 17317ft 177kts
08-Nov-18 21:29 33.528426 -115.547180 108 17317ft 177kts
08-Nov-18 21:30 33.512973 -115.492737 108 17317ft 177kts
08-Nov-18 21:31 33.497068 -115.436804 108 17317ft 177kts
08-Nov-18 21:32 33.481145 -115.380927 108 17317ft 177kts
08-Nov-18 21:33 33.465268 -115.325315 109 17317ft 177kts
08-Nov-18 21:34 33.449298 -115.269486 109 17317ft 177kts
08-Nov-18 21:35 33.433285 -115.213614 109 17317ft 177kts
08-Nov-18 21:36 33.417240 -115.157738 109 17316ft 177kts
08-Nov-18 21:37 33.401123 -115.101720 109 17316ft 177kts
08-Nov-18 21:38 33.385025 -115.045878 109 17317ft 177kts
08-Nov-18 21:39 33.368882 -114.989975 109 17317ft 177kts
08-Nov-18 21:40 33.352740 -114.934199 109 17317ft 177kts
08-Nov-18 21:41 33.336535 -114.878310 109 17316ft 177kts
08-Nov-18 21:42 33.320314 -114.822468 109 17317ft 177kts
08-Nov-18 21:43 33.304125 -114.766843 109 17317ft 178kts
08-Nov-18 21:44 33.287831 -114.710963 109 17317ft 178kts
08-Nov-18 21:45 33.271601 -114.655404 109 17317ft 178kts
08-Nov-18 21:46 33.255281 -114.599648 109 17316ft 178kts
08-Nov-18 21:47 33.238923 -114.543874 109 17317ft 178kts
08-Nov-18 21:48 33.222542 -114.488140 109 17317ft 178kts
08-Nov-18 21:49 33.206163 -114.432489 109 17317ft 178kts
08-Nov-18 21:50 33.189745 -114.376813 109 17317ft 178kts
08-Nov-18 21:51 33.174165 -114.324107 109 17317ft 178kts
08-Nov-18 21:52 33.161118 -114.280010 109 17317ft 178kts
08-Nov-18 21:53 33.145239 -114.226422 109 17455ft 174kts
08-Nov-18 21:54 33.128991 -114.171722 109 17454ft 176kts
08-Nov-18 21:55 33.112510 -114.116334 109 17454ft 177kts
08-Nov-18 21:56 33.095974 -114.060860 109 17454ft 177kts
08-Nov-18 21:57 33.079387 -114.005320 109 17454ft 177kts
08-Nov-18 21:58 33.063516 -113.952272 109 17454ft 178kts
08-Nov-18 21:59 33.046855 -113.896687 109 17454ft 178kts
08-Nov-18 22:00 33.030205 -113.841238 109 17454ft 178kts
08-Nov-18 22:01 33.013550 -113.785878 109 17454ft 178kts
08-Nov-18 22:02 32.996849 -113.730467 109 17454ft 178kts
08-Nov-18 22:03 32.980133 -113.675106 109 17454ft 178kts
08-Nov-18 22:04 32.963397 -113.619872 110 17453ft 178kts
08-Nov-18 22:05 32.946626 -113.564490 109 17454ft 178kts
08-Nov-18 22:06 32.929789 -113.508992 109 17454ft 178kts
08-Nov-18 22:07 32.912985 -113.453743 109 17454ft 178kts
08-Nov-18 22:08 32.896230 -113.398762 109 17454ft 178kts
08-Nov-18 22:09 32.879553 -113.344145 110 17454ft 178kts
08-Nov-18 22:10 32.862690 -113.288999 110 17454ft 178kts
08-Nov-18 22:11 32.845770 -113.233779 110 17454ft 178kts
08-Nov-18 22:12 32.828808 -113.178518 110 17454ft 178kts
08-Nov-18 22:13 32.815081 -113.122900 77 17457ft 177kts
08-Nov-18 22:14 32.824461 -113.066445 80 17454ft 178kts
08-Nov-18 22:15 32.832632 -113.008856 80 17454ft 178kts
08-Nov-18 22:16 32.840895 -112.950724 80 17454ft 178kts
08-Nov-18 22:17 32.849129 -112.892892 80 17454ft 178kts
08-Nov-18 22:18 32.855851 -112.845747 80 17454ft 178kts
08-Nov-18 22:19 32.863755 -112.790390 80 17454ft 178kts
08-Nov-18 22:20 32.870946 -112.739246 86 17452ft 178kts
08-Nov-18 22:21 32.847388 -112.704945 140 17454ft 178kts
08-Nov-18 22:22 32.809291 -112.667491 140 17454ft 178kts
08-Nov-18 22:23 32.773075 -112.631941 140 17454ft 178kts
08-Nov-18 22:24 32.734957 -112.594565 140 17454ft 178kts
08-Nov-18 22:25 32.696768 -112.557168 140 17454ft 178kts
08-Nov-18 22:26 32.658430 -112.519676 140 17454ft 178kts
08-Nov-18 22:27 32.621299 -112.481071 128 17454ft 178kts
08-Nov-18 22:28 32.597487 -112.429881 113 17454ft 178kts
08-Nov-18 22:29 32.579030 -112.375411 110 17454ft 178kts
08-Nov-18 22:30 32.561623 -112.320842 110 17454ft 178kts
08-Nov-18 22:31 32.544158 -112.265692 110 17454ft 178kts
08-Nov-18 22:32 32.526787 -112.210857 110 17454ft 178kts
08-Nov-18 22:33 32.509324 -112.155822 110 17454ft 178kts
08-Nov-18 22:34 32.491842 -112.100820 110 17454ft 178kts
08-Nov-18 22:35 32.474412 -112.046082 110 17454ft 178kts
08-Nov-18 22:36 32.456902 -111.991186 110 17454ft 178kts
08-Nov-18 22:37 32.439381 -111.936349 110 17454ft 178kts
08-Nov-18 22:38 32.421815 -111.881470 110 17454ft 178kts
08-Nov-18 22:39 32.404208 -111.826558 110 17454ft 178kts
08-Nov-18 22:40 32.386646 -111.771880 110 17454ft 178kts
08-Nov-18 22:41 32.368952 -111.716889 110 17454ft 178kts
08-Nov-18 22:42 32.351328 -111.662211 110 17454ft 178kts
08-Nov-18 22:43 32.333606 -111.607321 110 17454ft 178kts
08-Nov-18 22:44 32.315923 -111.552646 110 17454ft 178kts
08-Nov-18 22:45 32.298201 -111.497946 110 17454ft 178kts
08-Nov-18 22:46 32.280442 -111.443147 110 17454ft 178kts
08-Nov-18 22:47 32.262645 -111.388406 110 17338ft 185kts
08-Nov-18 22:48 32.242343 -111.326208 111 15654ft 217kts
08-Nov-18 22:49 32.220631 -111.259764 111 13358ft 219kts
08-Nov-18 22:50 32.210353 -111.192622 78 10566ft 210kts
08-Nov-18 22:51 32.220523 -111.136726 80 8512ft 159kts
08-Nov-18 22:52 32.222396 -111.089660 100 6942ft 144kts
08-Nov-18 22:53 32.205446 -111.050771 127 5933ft 136kts
08-Nov-18 22:54 32.179184 -111.015877 136 4767ft 140kts
08-Nov-18 22:55 32.155050 -110.988549 133 3944ft 112kts
08-Nov-18 22:56 32.134163 -110.963918 135 3038ft 95kts
08-Nov-18 22:57 32.117401 -110.944114 135 2590ft 66kts
08-Nov-18 22:58 32.113319 -110.938195 41 2604ft 3kts
08-Nov-18 22:59 32.115811 -110.936523 315 2605ft 13kts
08-Nov-18 23:00 32.118543 -110.939705 312 2597ft 18kts
08-Nov-18 23:01 32.122337 -110.943364 50 2582ft 9kts
08-Nov-18 23:02 32.124196 -110.943923 320 2577ft 10kts
08-Nov-18 23:03 32.124827 -110.944690 132 2575ft 0kts
08-Nov-18 23:04 32.124827 -110.944690 132 2575ft 0kts
08-Nov-18 23:05 32.124827 -110.944690 132 2575ft 0kts

Navigation Log

Ident Type
Flight plan parsing failed, navigation log unavailable